Time;durP1;ratioP1;P1;durP2;ratioP2;P2;SDS_P1;SDS_P2;PMS_P1;PMS_P2;Temp;Humidity;BMP_temperature;BMP_pressure;BME280_temperature;BME280_humidity;BME280_pressure;Samples;Min_cycle;Max_cycle;Signal;HPM_P1;HPM_P2
2023/10/29 00:01:42;;;;;;;5.47;2.42;;;;;;;;;;6219809;23;20091;-79
2023/10/29 00:04:12;;;;;;;4.55;2.65;;;;;;;;;;6245066;23;20020;-80
2023/10/29 00:06:42;;;;;;;3.22;1.50;;;;;;;;;;6246912;23;20012;-78
2023/10/29 00:09:12;;;;;;;1.90;0.95;;;;;;;;;;6246975;23;20015;-80
2023/10/29 00:11:42;;;;;;;4.28;1.80;;;;;;;;;;6219079;23;20023;-78
2023/10/29 00:14:12;;;;;;;1.92;1.02;;;;;;;;;;6219787;23;20027;-78
2023/10/29 00:16:43;;;;;;;2.50;1.45;;;;;;;;;;6247054;23;20008;-78
2023/10/29 00:19:12;;;;;;;3.88;1.90;;;;;;;;;;6218930;23;20019;-78
2023/10/29 00:21:45;;;;;;;2.78;1.35;;;;;;;;;;6257925;23;20008;-78
2023/10/29 00:24:15;;;;;;;2.92;1.40;;;;;;;;;;6246660;23;20020;-78
2023/10/29 00:26:47;;;;;;;2.50;1.20;;;;;;;;;;6244988;23;20018;-77
2023/10/29 00:40:55;;;;;;;1.65;0.73;;;;;;;;;;6286910;22;20011;-77
2023/10/29 00:43:25;;;;;;;1.90;0.82;;;;;;;;;;6278168;22;20026;-78
2023/10/29 00:45:55;;;;;;;2.00;0.80;;;;;;;;;;6274424;22;20019;-77
2023/10/29 00:48:25;;;;;;;2.88;1.38;;;;;;;;;;6251617;22;20310;-78
2023/10/29 00:50:56;;;;;;;2.22;1.00;;;;;;;;;;6277451;22;20308;-78
2023/10/29 00:53:26;;;;;;;1.85;0.80;;;;;;;;;;6277166;22;20008;-78
2023/10/29 00:55:57;;;;;;;2.25;1.13;;;;;;;;;;6248614;22;20415;-78
2023/10/29 00:58:28;;;;;;;2.17;1.10;;;;;;;;;;6249146;22;20012;-78
2023/10/29 01:00:59;;;;;;;3.40;1.10;;;;;;;;;;6287485;22;20003;-78
2023/10/29 01:03:29;;;;;;;3.05;1.23;;;;;;;;;;6249012;22;20438;-78
2023/10/29 01:06:00;;;;;;;2.70;1.35;;;;;;;;;;6248402;22;20008;-79
2023/10/29 01:08:31;;;;;;;2.63;1.10;;;;;;;;;;6274495;22;20015;-77
2023/10/29 01:11:06;;;;;;;4.35;1.83;;;;;;;;;;6248885;22;20030;-77
2023/10/29 01:13:38;;;;;;;1.67;0.82;;;;;;;;;;6225839;22;20016;-78
2023/10/29 01:16:09;;;;;;;1.55;0.73;;;;;;;;;;6275301;22;20055;-77
2023/10/29 01:18:40;;;;;;;2.90;0.63;;;;;;;;;;6287252;22;20011;-77
2023/10/29 01:21:10;;;;;;;2.50;0.60;;;;;;;;;;6277675;22;20021;-77
2023/10/29 01:23:41;;;;;;;1.80;0.80;;;;;;;;;;6248951;22;20031;-77
2023/10/29 01:26:11;;;;;;;3.40;1.38;;;;;;;;;;6249330;22;20027;-78
2023/10/29 01:28:41;;;;;;;2.50;1.40;;;;;;;;;;6276619;22;20016;-78
2023/10/29 01:31:11;;;;;;;1.40;0.63;;;;;;;;;;6249080;22;20019;-78
2023/10/29 01:33:41;;;;;;;1.00;0.60;;;;;;;;;;6277302;22;20015;-78
2023/10/29 01:36:11;;;;;;;1.50;0.60;;;;;;;;;;6274410;22;20016;-78
2023/10/29 01:38:41;;;;;;;0.70;0.25;;;;;;;;;;6247869;22;20426;-77
2023/10/29 01:41:11;;;;;;;2.85;1.15;;;;;;;;;;6249260;22;20015;-77
2023/10/29 01:43:42;;;;;;;1.98;0.43;;;;;;;;;;6274999;22;20326;-78
2023/10/29 01:46:13;;;;;;;1.50;0.68;;;;;;;;;;6277041;22;20426;-79
2023/10/29 01:48:43;;;;;;;1.92;0.63;;;;;;;;;;6249293;22;20315;-78
2023/10/29 01:51:13;;;;;;;1.42;0.40;;;;;;;;;;6276638;22;20304;-80
2023/10/29 01:53:44;;;;;;;1.33;0.50;;;;;;;;;;6249465;22;20023;-79
2023/10/29 01:56:15;;;;;;;1.08;0.50;;;;;;;;;;6277023;22;20011;-79
2023/10/29 01:58:45;;;;;;;0.95;0.40;;;;;;;;;;6247975;22;20030;-78
2023/10/29 02:01:15;;;;;;;1.13;0.47;;;;;;;;;;6248870;22;20026;-78
2023/10/29 02:03:46;;;;;;;1.13;0.45;;;;;;;;;;6249704;22;20284;-78
2023/10/29 02:06:17;;;;;;;0.93;0.32;;;;;;;;;;6275561;22;20026;-78
2023/10/29 02:08:48;;;;;;;1.40;0.40;;;;;;;;;;6287903;22;20004;-78
2023/10/29 02:11:18;;;;;;;0.73;0.30;;;;;;;;;;6275567;22;20012;-78
2023/10/29 02:13:48;;;;;;;1.08;0.40;;;;;;;;;;6278596;22;20331;-78
2023/10/29 02:16:18;;;;;;;1.33;0.35;;;;;;;;;;6276419;22;20023;-78
2023/10/29 02:18:48;;;;;;;6.70;0.82;;;;;;;;;;6279180;22;20035;-78
2023/10/29 02:21:19;;;;;;;1.00;0.80;;;;;;;;;;6278205;22;20022;-78
2023/10/29 02:23:50;;;;;;;1.80;0.40;;;;;;;;;;6250674;22;20335;-77
2023/10/29 02:26:21;;;;;;;0.93;0.20;;;;;;;;;;6279313;22;20008;-78
2023/10/29 02:28:51;;;;;;;0.15;0.10;;;;;;;;;;6279212;22;20022;-78
2023/10/29 02:31:22;;;;;;;1.10;0.20;;;;;;;;;;6288954;22;20019;-78
2023/10/29 02:33:53;;;;;;;1.15;0.30;;;;;;;;;;6278025;22;20008;-78
2023/10/29 02:36:23;;;;;;;0.10;0.10;;;;;;;;;;6278337;22;20070;-78
2023/10/29 02:38:53;;;;;;;0.50;0.32;;;;;;;;;;6250709;22;20015;-78
2023/10/29 02:41:23;;;;;;;0.50;0.30;;;;;;;;;;6278311;22;20016;-78
2023/10/29 02:43:54;;;;;;;0.60;0.13;;;;;;;;;;6278595;22;20015;-77
2023/10/29 02:46:25;;;;;;;1.08;0.20;;;;;;;;;;6288413;22;20018;-78
2023/10/29 02:48:55;;;;;;;0.52;0.20;;;;;;;;;;6278210;22;20011;-78
2023/10/29 02:51:26;;;;;;;0.85;0.20;;;;;;;;;;6278793;22;20037;-78
2023/10/29 02:53:55;;;;;;;0.98;0.13;;;;;;;;;;6250183;22;20023;-76
2023/10/29 02:56:25;;;;;;;0.32;0.22;;;;;;;;;;6278251;22;20015;-77
2023/10/29 02:58:55;;;;;;;0.45;0.20;;;;;;;;;;6250821;22;20020;-77
2023/10/29 03:01:27;;;;;;;0.70;0.20;;;;;;;;;;6250167;22;20008;-78
2023/10/29 03:03:59;;;;;;;0.90;0.40;;;;;;;;;;6249650;22;20014;-77
2023/10/29 03:06:31;;;;;;;0.20;0.20;;;;;;;;;;6288721;22;20014;-76
2023/10/29 03:09:01;;;;;;;1.55;0.20;;;;;;;;;;6287971;22;20004;-78
2023/10/29 03:11:31;;;;;;;0.25;0.10;;;;;;;;;;6277984;22;20304;-79
2023/10/29 03:14:01;;;;;;;0.10;0.10;;;;;;;;;;6278962;22;20259;-77
2023/10/29 03:16:31;;;;;;;0.85;0.20;;;;;;;;;;6279037;22;20015;-78
2023/10/29 03:19:01;;;;;;;1.17;0.10;;;;;;;;;;6277757;22;20012;-78
2023/10/29 03:21:31;;;;;;;0.35;0.22;;;;;;;;;;6275677;22;20027;-79
2023/10/29 03:24:01;;;;;;;0.40;0.10;;;;;;;;;;6249421;22;20022;-79
2023/10/29 03:26:31;;;;;;;0.10;0.10;;;;;;;;;;6277942;22;20008;-81
2023/10/29 03:29:01;;;;;;;0.10;0.10;;;;;;;;;;6250595;22;20026;-78
2023/10/29 03:31:31;;;;;;;0.20;0.10;;;;;;;;;;6278186;22;20007;-78
2023/10/29 03:34:02;;;;;;;0.20;0.03;;;;;;;;;;6250071;22;20023;-78
2023/10/29 03:36:33;;;;;;;0.57;0.20;;;;;;;;;;6276501;22;20024;-78
2023/10/29 03:39:05;;;;;;;1.70;0.15;;;;;;;;;;6276414;22;20008;-79
2023/10/29 03:41:35;;;;;;;0.10;0.10;;;;;;;;;;6288373;22;20016;-81
2023/10/29 03:44:07;;;;;;;0.10;0.10;;;;;;;;;;6249888;22;20019;-80
2023/10/29 03:46:37;;;;;;;0.40;0.10;;;;;;;;;;6250179;22;20322;-78
2023/10/29 03:49:11;;;;;;;;;;;;;;;;;;6263254;22;20003;-79
2023/10/29 03:51:47;;;;;;;0.13;0.13;;;;;;;;;;6288222;22;19926;-79
2023/10/29 03:54:20;;;;;;;0.25;0.10;;;;;;;;;;6288494;22;20023;-78
2023/10/29 03:56:50;;;;;;;0.32;0.20;;;;;;;;;;6287811;22;20007;-79
2023/10/29 03:59:21;;;;;;;0.10;0.10;;;;;;;;;;6277782;22;20022;-80
2023/10/29 04:01:51;;;;;;;0.20;0.10;;;;;;;;;;6278352;22;20012;-79
2023/10/29 04:04:21;;;;;;;0.13;0.13;;;;;;;;;;6275985;22;20430;-78
2023/10/29 04:06:51;;;;;;;0.20;0.10;;;;;;;;;;6249060;22;20030;-80
2023/10/29 04:09:21;;;;;;;0.10;0.10;;;;;;;;;;6249650;22;20018;-79
2023/10/29 04:11:51;;;;;;;0.20;0.20;;;;;;;;;;6278285;22;20019;-78
2023/10/29 04:14:25;;;;;;;0.20;0.10;;;;;;;;;;6288149;22;20035;-79
2023/10/29 04:16:58;;;;;;;0.10;0.10;;;;;;;;;;6287939;22;20004;-79
2023/10/29 04:19:28;;;;;;;0.30;0.10;;;;;;;;;;6277432;22;20004;-79
2023/10/29 04:22:00;;;;;;;0.15;0.10;;;;;;;;;;6275371;22;20354;-78
2023/10/29 04:24:30;;;;;;;0.93;0.03;;;;;;;;;;6287619;22;20019;-78
2023/10/29 04:27:00;;;;;;;1.10;0.20;;;;;;;;;;6276712;22;20443;-77
2023/10/29 04:29:30;;;;;;;0.50;0.20;;;;;;;;;;6277013;22;20011;-77
2023/10/29 04:32:00;;;;;;;0.03;0.03;;;;;;;;;;6276938;22;20016;-77
2023/10/29 04:34:30;;;;;;;0.10;0.10;;;;;;;;;;6297056;22;20010;-79
2023/10/29 04:37:03;;;;;;;0.20;0.10;;;;;;;;;;6294489;22;20473;-79
2023/10/29 04:39:33;;;;;;;0.30;0.10;;;;;;;;;;6286806;22;20026;-79
2023/10/29 04:42:04;;;;;;;0.13;0.13;;;;;;;;;;6276372;22;20331;-77
2023/10/29 04:44:34;;;;;;;4.00;0.40;;;;;;;;;;6249637;22;20042;-77
2023/10/29 04:47:05;;;;;;;0.10;0.10;;;;;;;;;;6274951;22;20118;-78
2023/10/29 04:49:35;;;;;;;0.35;0.10;;;;;;;;;;6275361;22;20016;-79
2023/10/29 04:52:05;;;;;;;0.40;0.17;;;;;;;;;;6275369;22;20035;-77
2023/10/29 04:54:36;;;;;;;0.50;0.10;;;;;;;;;;6276696;22;20446;-79
2023/10/29 04:57:07;;;;;;;0.20;0.10;;;;;;;;;;6275535;22;20027;-78
2023/10/29 04:59:37;;;;;;;1.35;0.20;;;;;;;;;;6249963;22;20020;-80
2023/10/29 05:02:07;;;;;;;1.85;0.10;;;;;;;;;;6275145;22;20020;-79
2023/10/29 05:04:37;;;;;;;1.77;0.17;;;;;;;;;;6276259;22;20016;-79
2023/10/29 05:07:08;;;;;;;0.10;0.10;;;;;;;;;;6274460;22;20016;-77
2023/10/29 05:09:38;;;;;;;0.32;0.10;;;;;;;;;;6275406;22;20042;-78
2023/10/29 05:12:08;;;;;;;2.53;0.38;;;;;;;;;;6275908;22;20022;-77
2023/10/29 05:14:38;;;;;;;0.22;0.03;;;;;;;;;;6275011;22;20015;-78
2023/10/29 05:17:08;;;;;;;1.88;0.50;;;;;;;;;;6250589;22;20012;-77
2023/10/29 05:19:39;;;;;;;1.48;0.40;;;;;;;;;;6276585;22;20023;-79
2023/10/29 05:22:11;;;;;;;1.33;0.30;;;;;;;;;;6287259;22;20027;-79
2023/10/29 05:24:41;;;;;;;0.80;0.60;;;;;;;;;;6287209;22;20008;-78
2023/10/29 05:27:11;;;;;;;0.47;0.20;;;;;;;;;;6249328;22;20011;-77
2023/10/29 05:29:41;;;;;;;0.28;0.20;;;;;;;;;;6249119;22;20427;-78
2023/10/29 05:32:11;;;;;;;0.68;0.20;;;;;;;;;;6276168;22;20008;-79
2023/10/29 05:34:41;;;;;;;3.03;0.20;;;;;;;;;;6274964;22;20015;-78
2023/10/29 05:37:11;;;;;;;3.20;0.22;;;;;;;;;;6248832;22;20023;-78
2023/10/29 05:39:42;;;;;;;1.63;0.30;;;;;;;;;;6274915;22;20011;-78
2023/10/29 05:42:13;;;;;;;0.65;0.20;;;;;;;;;;6276387;22;20016;-79
2023/10/29 05:44:43;;;;;;;1.65;0.30;;;;;;;;;;6275027;22;20016;-78
2023/10/29 05:47:14;;;;;;;2.65;0.20;;;;;;;;;;6276600;22;20447;-78
2023/10/29 05:49:44;;;;;;;3.50;0.45;;;;;;;;;;6275205;22;20018;-78
2023/10/29 05:52:14;;;;;;;3.65;0.65;;;;;;;;;;6248957;22;20016;-78
2023/10/29 05:54:44;;;;;;;1.25;0.10;;;;;;;;;;6248357;22;20022;-78
2023/10/29 05:57:16;;;;;;;2.08;0.15;;;;;;;;;;6274628;22;20007;-78
2023/10/29 05:59:46;;;;;;;1.58;0.28;;;;;;;;;;6260622;22;20011;-78
2023/10/29 06:02:17;;;;;;;5.07;0.40;;;;;;;;;;6248913;22;20016;-78
2023/10/29 06:04:47;;;;;;;0.85;0.20;;;;;;;;;;6277090;22;20027;-79
2023/10/29 06:07:18;;;;;;;5.30;0.20;;;;;;;;;;6275745;22;20023;-78
2023/10/29 06:09:48;;;;;;;2.15;0.20;;;;;;;;;;6277110;22;20437;-78
2023/10/29 06:12:18;;;;;;;3.65;0.25;;;;;;;;;;6276043;22;20430;-78
2023/10/29 06:14:48;;;;;;;2.17;0.35;;;;;;;;;;6247922;22;20473;-79
2023/10/29 06:17:19;;;;;;;1.65;0.30;;;;;;;;;;6274042;22;20454;-78
2023/10/29 06:19:55;;;;;;;2.03;0.20;;;;;;;;;;6287385;22;20015;-78
2023/10/29 06:22:25;;;;;;;2.65;0.40;;;;;;;;;;6249318;22;20289;-78
2023/10/29 06:24:55;;;;;;;0.38;0.25;;;;;;;;;;6275525;22;20015;-78
2023/10/29 06:27:25;;;;;;;2.65;0.22;;;;;;;;;;6274314;22;20430;-79
2023/10/29 06:29:55;;;;;;;4.05;0.95;;;;;;;;;;6276059;22;20016;-78
2023/10/29 06:32:28;;;;;;;1.77;0.30;;;;;;;;;;6249263;22;20031;-78
2023/10/29 06:34:59;;;;;;;1.42;0.63;;;;;;;;;;6248631;22;20019;-77
2023/10/29 06:37:30;;;;;;;3.20;0.40;;;;;;;;;;6286169;22;20004;-77
2023/10/29 06:40:00;;;;;;;2.42;0.20;;;;;;;;;;6276660;22;20016;-78
2023/10/29 06:42:29;;;;;;;4.97;0.50;;;;;;;;;;6276463;22;20335;-78
2023/10/29 06:44:59;;;;;;;4.65;0.70;;;;;;;;;;6273279;22;20330;-77
2023/10/29 06:47:30;;;;;;;1.13;0.30;;;;;;;;;;6274471;22;20012;-78
2023/10/29 06:50:00;;;;;;;1.75;1.02;;;;;;;;;;6276956;22;20019;-78
2023/10/29 06:52:33;;;;;;;1.02;0.60;;;;;;;;;;6275702;22;20019;-79
2023/10/29 06:55:02;;;;;;;4.72;0.60;;;;;;;;;;6274632;22;20042;-79
2023/10/29 06:57:33;;;;;;;4.10;0.75;;;;;;;;;;6276756;22;20048;-78
2023/10/29 07:00:04;;;;;;;1.30;0.60;;;;;;;;;;6251647;22;20008;-78
2023/10/29 07:02:35;;;;;;;5.35;0.90;;;;;;;;;;6275949;22;20019;-78
2023/10/29 07:05:06;;;;;;;3.00;0.60;;;;;;;;;;6251327;22;20015;-78
2023/10/29 07:07:36;;;;;;;1.02;0.60;;;;;;;;;;6277216;22;20020;-78
2023/10/29 07:10:07;;;;;;;5.38;0.60;;;;;;;;;;6276031;22;20454;-78
2023/10/29 07:12:37;;;;;;;2.28;0.80;;;;;;;;;;6287934;22;20016;-78
2023/10/29 07:15:10;;;;;;;2.20;0.50;;;;;;;;;;6249843;22;20011;-78
2023/10/29 07:17:41;;;;;;;2.13;0.50;;;;;;;;;;6288199;22;20469;-78
2023/10/29 07:20:11;;;;;;;5.88;0.63;;;;;;;;;;6276451;22;20024;-78
2023/10/29 07:22:42;;;;;;;3.47;1.10;;;;;;;;;;6276529;22;20027;-79
2023/10/29 07:25:12;;;;;;;5.03;0.50;;;;;;;;;;6276185;22;20016;-78
2023/10/29 07:27:42;;;;;;;3.97;0.43;;;;;;;;;;6278741;22;20020;-78
2023/10/29 07:30:12;;;;;;;1.88;0.93;;;;;;;;;;6275920;22;20016;-79
2023/10/29 07:32:42;;;;;;;2.85;0.90;;;;;;;;;;6276236;22;20457;-78
2023/10/29 07:35:12;;;;;;;2.20;1.10;;;;;;;;;;6276652;22;20027;-79
2023/10/29 07:37:42;;;;;;;1.90;1.15;;;;;;;;;;6287701;22;20007;-78
2023/10/29 07:40:12;;;;;;;5.30;1.30;;;;;;;;;;6278497;22;20016;-78
2023/10/29 07:42:42;;;;;;;4.63;1.30;;;;;;;;;;6275478;22;20016;-78
2023/10/29 07:45:12;;;;;;;2.22;1.23;;;;;;;;;;6249772;22;20023;-78
2023/10/29 07:47:42;;;;;;;3.80;1.45;;;;;;;;;;6277652;22;20426;-78
2023/10/29 07:50:14;;;;;;;6.05;1.60;;;;;;;;;;6276670;22;20038;-78
2023/10/29 07:52:44;;;;;;;3.40;1.40;;;;;;;;;;6276798;22;20012;-78
2023/10/29 07:55:14;;;;;;;2.88;1.00;;;;;;;;;;6277692;22;20016;-78
2023/10/29 07:57:44;;;;;;;4.93;1.30;;;;;;;;;;6277693;22;20014;-78
2023/10/29 08:00:15;;;;;;;3.05;1.17;;;;;;;;;;6277281;22;20019;-78
2023/10/29 08:02:46;;;;;;;2.53;1.63;;;;;;;;;;6275375;22;20020;-78
2023/10/29 08:05:17;;;;;;;6.45;1.83;;;;;;;;;;6276110;22;20011;-78
2023/10/29 08:07:47;;;;;;;2.83;1.10;;;;;;;;;;6275101;22;20438;-78
2023/10/29 08:10:17;;;;;;;2.92;0.70;;;;;;;;;;6276324;22;20023;-78
2023/10/29 08:12:47;;;;;;;5.13;1.17;;;;;;;;;;6277491;22;20008;-78
2023/10/29 08:15:17;;;;;;;3.50;1.17;;;;;;;;;;6275054;22;20015;-79
2023/10/29 08:17:47;;;;;;;2.90;1.00;;;;;;;;;;6249467;22;20011;-79
2023/10/29 08:20:17;;;;;;;3.22;0.90;;;;;;;;;;6276000;22;20016;-78
2023/10/29 08:22:47;;;;;;;1.33;0.80;;;;;;;;;;6275595;22;20019;-79
2023/10/29 08:25:17;;;;;;;5.45;0.90;;;;;;;;;;6277069;22;20008;-78
2023/10/29 08:27:47;;;;;;;2.08;0.90;;;;;;;;;;6275394;22;20018;-78
2023/10/29 08:30:17;;;;;;;1.60;0.98;;;;;;;;;;6276364;22;20015;-79
2023/10/29 08:32:47;;;;;;;4.25;0.98;;;;;;;;;;6275605;22;20015;-78
2023/10/29 08:35:17;;;;;;;4.68;1.08;;;;;;;;;;6275561;22;20387;-78
2023/10/29 08:37:47;;;;;;;2.63;0.98;;;;;;;;;;6249010;22;20012;-78
2023/10/29 08:40:17;;;;;;;2.90;1.10;;;;;;;;;;6249972;22;20035;-78
2023/10/29 08:42:47;;;;;;;2.17;1.02;;;;;;;;;;6277871;22;20113;-78
2023/10/29 08:45:22;;;;;;;3.58;1.23;;;;;;;;;;6276444;22;20035;-77
2023/10/29 08:48:13;;;;;;;3.65;1.05;;;;;;;;;;6286995;22;20011;-77
2023/10/29 08:50:43;;;;;;;4.60;1.70;;;;;;;;;;6248921;22;20142;-79
2023/10/29 08:53:13;;;;;;;4.47;1.35;;;;;;;;;;6277775;22;20035;-78
2023/10/29 08:55:43;;;;;;;4.43;1.35;;;;;;;;;;6276633;22;20012;-79
2023/10/29 08:58:13;;;;;;;2.50;1.10;;;;;;;;;;6249279;22;20017;-78
2023/10/29 09:00:44;;;;;;;3.38;1.23;;;;;;;;;;6277883;22;20015;-78
2023/10/29 09:03:15;;;;;;;6.13;1.30;;;;;;;;;;6287736;22;20018;-78
2023/10/29 09:05:46;;;;;;;2.70;1.30;;;;;;;;;;6277564;22;20019;-78
2023/10/29 09:08:16;;;;;;;4.20;1.08;;;;;;;;;;6277561;22;20015;-78
2023/10/29 09:10:46;;;;;;;2.40;1.08;;;;;;;;;;6276494;22;20103;-78
2023/10/29 09:13:19;;;;;;;3.70;1.25;;;;;;;;;;6276504;22;20016;-78
2023/10/29 09:15:49;;;;;;;4.80;1.33;;;;;;;;;;6287668;22;20012;-77
2023/10/29 09:18:20;;;;;;;7.57;1.40;;;;;;;;;;6276812;22;20450;-78
2023/10/29 09:20:50;;;;;;;5.32;1.73;;;;;;;;;;6277082;22;20035;-78
2023/10/29 09:23:20;;;;;;;3.50;1.20;;;;;;;;;;6277438;22;20012;-78
2023/10/29 09:25:50;;;;;;;3.88;1.55;;;;;;;;;;6276472;22;20015;-78
2023/10/29 09:28:21;;;;;;;3.42;1.25;;;;;;;;;;6276513;22;20312;-78
2023/10/29 09:30:51;;;;;;;2.08;1.25;;;;;;;;;;6274578;22;20011;-79
2023/10/29 09:33:22;;;;;;;5.10;1.17;;;;;;;;;;6249549;22;20015;-78
2023/10/29 09:35:52;;;;;;;3.60;1.50;;;;;;;;;;6250310;22;20323;-78
2023/10/29 09:38:23;;;;;;;3.40;1.50;;;;;;;;;;6287464;22;20033;-78
2023/10/29 09:40:53;;;;;;;3.78;1.10;;;;;;;;;;6277067;22;20015;-77
2023/10/29 09:43:31;;;;;;;4.32;1.23;;;;;;;;;;6286807;22;20008;-80
2023/10/29 09:46:05;;;;;;;3.53;1.08;;;;;;;;;;6287173;22;20010;-78
2023/10/29 09:48:38;;;;;;;3.58;1.30;;;;;;;;;;6248885;22;20007;-79
2023/10/29 09:51:09;;;;;;;2.72;1.00;;;;;;;;;;6286810;22;20022;-78
2023/10/29 09:53:42;;;;;;;10.57;1.25;;;;;;;;;;6277125;22;20011;-78
2023/10/29 09:56:15;;;;;;;2.55;1.08;;;;;;;;;;6286883;22;20323;-78
2023/10/29 09:58:45;;;;;;;3.97;0.88;;;;;;;;;;6286960;22;20014;-78
2023/10/29 10:01:15;;;;;;;2.90;1.42;;;;;;;;;;6286395;22;20015;-78
2023/10/29 10:03:48;;;;;;;2.47;0.93;;;;;;;;;;6268160;22;20018;-78
2023/10/29 10:06:19;;;;;;;2.50;1.02;;;;;;;;;;6307934;22;20018;-79
2023/10/29 10:08:57;;;;;;;3.03;0.80;;;;;;;;;;6297207;22;20008;-78
2023/10/29 10:11:27;;;;;;;;;;;;;;;;;;6304600;22;20086;-79
2023/10/29 10:13:57;;;;;;;3.40;0.80;;;;;;;;;;6265446;22;19911;-78
2023/10/29 10:16:27;;;;;;;2.63;1.00;;;;;;;;;;6284708;22;20431;-79
2023/10/29 10:18:59;;;;;;;6.47;2.83;;;;;;;;;;6277658;22;20327;-79
2023/10/29 10:21:43;;;;;;;7.53;3.65;;;;;;;;;;6287196;22;20031;-78
2023/10/29 10:24:14;;;;;;;13.35;5.95;;;;;;;;;;6286721;22;20007;-80
2023/10/29 10:26:44;;;;;;;6.13;3.30;;;;;;;;;;6273608;22;20016;-78
2023/10/29 10:29:14;;;;;;;4.70;2.10;;;;;;;;;;6276445;22;20008;-80
2023/10/29 10:31:45;;;;;;;7.03;3.38;;;;;;;;;;6262737;22;20003;-78
2023/10/29 10:34:19;;;;;;;4.72;2.15;;;;;;;;;;6278635;22;20015;-78
2023/10/29 10:36:49;;;;;;;2.53;1.23;;;;;;;;;;6253920;22;20020;-78
2023/10/29 10:39:23;;;;;;;3.92;1.85;;;;;;;;;;6278348;22;20019;-79
2023/10/29 10:41:53;;;;;;;4.35;1.85;;;;;;;;;;6288808;22;20011;-79
2023/10/29 10:44:30;;;;;;;4.35;1.50;;;;;;;;;;6250886;22;20012;-78
2023/10/29 10:47:02;;;;;;;2.97;1.75;;;;;;;;;;6288384;22;20008;-78
2023/10/29 10:49:35;;;;;;;6.10;2.47;;;;;;;;;;6251611;22;20011;-79
2023/10/29 10:52:06;;;;;;;2.58;1.58;;;;;;;;;;6288983;22;20055;-78
2023/10/29 10:54:38;;;;;;;6.75;2.13;;;;;;;;;;6288417;22;20022;-78
2023/10/29 10:57:09;;;;;;;4.53;1.80;;;;;;;;;;6288301;22;20018;-80
2023/10/29 10:59:40;;;;;;;4.35;1.10;;;;;;;;;;6278041;22;20206;-80
2023/10/29 11:02:13;;;;;;;4.18;1.90;;;;;;;;;;6287945;22;20008;-78
2023/10/29 11:04:46;;;;;;;4.05;2.00;;;;;;;;;;6288598;22;20016;-79
2023/10/29 11:07:17;;;;;;;4.05;2.00;;;;;;;;;;6250210;22;20012;-79
2023/10/29 11:09:47;;;;;;;4.25;2.20;;;;;;;;;;6278072;22;20018;-79
2023/10/29 11:12:20;;;;;;;6.03;2.75;;;;;;;;;;6251023;22;20327;-79
2023/10/29 11:15:19;;;;;;;8.05;2.75;;;;;;;;;;6288497;22;20284;-79
2023/10/29 11:18:02;;;;;;;5.63;2.28;;;;;;;;;;6277028;22;20020;-78
2023/10/29 11:20:46;;;;;;;6.68;2.65;;;;;;;;;;6288443;22;20007;-78
2023/10/29 11:23:23;;;;;;;4.75;2.30;;;;;;;;;;6262368;22;20004;-79
2023/10/29 11:26:19;;;;;;;7.45;2.67;;;;;;;;;;6288344;22;20012;-79
2023/10/29 11:28:52;;;;;;;6.78;2.55;;;;;;;;;;6288588;22;20007;-78
2023/10/29 11:31:25;;;;;;;5.38;2.03;;;;;;;;;;6288244;22;20008;-79
2023/10/29 11:33:55;;;;;;;6.32;2.50;;;;;;;;;;6288351;22;20003;-78
2023/10/29 11:36:35;;;;;;;4.20;2.00;;;;;;;;;;6281610;22;20008;-79
2023/10/29 11:39:18;;;;;;;4.47;1.77;;;;;;;;;;6288424;22;20008;-80
2023/10/29 11:41:52;;;;;;;5.63;2.30;;;;;;;;;;6287795;22;20031;-78
2023/10/29 11:44:27;;;;;;;5.50;2.13;;;;;;;;;;6288109;22;20054;-80
2023/10/29 11:47:01;;;;;;;5.22;1.88;;;;;;;;;;6262261;22;20011;-80
2023/10/29 11:49:46;;;;;;;3.65;1.88;;;;;;;;;;6288213;22;20003;-79
2023/10/29 11:52:16;;;;;;;;;;;;;;;;;;6288887;22;20008;-79
2023/10/29 11:54:46;;;;;;;0.88;0.68;;;;;;;;;;6277401;22;20230;-79
2023/10/29 11:57:17;;;;;;;2.50;0.70;;;;;;;;;;6277613;22;20015;-79
2023/10/29 11:59:55;;;;;;;2.72;1.05;;;;;;;;;;6288001;22;20446;-80
2023/10/29 12:02:28;;;;;;;4.30;0.88;;;;;;;;;;6287392;22;20012;-81
2023/10/29 12:04:58;;;;;;;3.28;0.82;;;;;;;;;;6251449;22;20015;-78
2023/10/29 12:07:29;;;;;;;2.58;0.57;;;;;;;;;;6288197;22;20007;-79
2023/10/29 12:10:07;;;;;;;2.50;1.00;;;;;;;;;;6261670;22;20003;-80
2023/10/29 12:12:56;;;;;;;0.45;0.45;;;;;;;;;;6287324;22;20011;-80
2023/10/29 12:15:38;;;;;;;3.25;0.82;;;;;;;;;;6287866;22;20003;-80
2023/10/29 12:18:20;;;;;;;1.25;0.65;;;;;;;;;;6287595;22;20438;-80
2023/10/29 12:20:50;;;;;;;4.05;0.63;;;;;;;;;;6287562;22;20011;-82
2023/10/29 12:23:20;;;;;;;1.48;0.43;;;;;;;;;;6277106;22;20438;-80
2023/10/29 12:25:52;;;;;;;0.90;0.60;;;;;;;;;;6288097;22;20004;-80
2023/10/29 12:28:22;;;;;;;2.05;1.30;;;;;;;;;;6249350;22;20007;-80
2023/10/29 12:30:52;;;;;;;1.40;0.75;;;;;;;;;;6277310;22;20011;-83
2023/10/29 12:33:27;;;;;;;5.75;1.00;;;;;;;;;;6277399;22;20379;-82
2023/10/29 12:36:03;;;;;;;1.35;0.77;;;;;;;;;;6278954;22;20303;-81
2023/10/29 12:38:39;;;;;;;3.60;1.00;;;;;;;;;;6287786;22;20008;-81
2023/10/29 12:41:12;;;;;;;9.65;4.57;;;;;;;;;;6287882;22;20003;-81
2023/10/29 12:43:52;;;;;;;2.53;1.20;;;;;;;;;;6287461;22;20008;-82
2023/10/29 12:46:24;;;;;;;2.20;0.93;;;;;;;;;;6249202;22;20334;-80
2023/10/29 12:49:08;;;;;;;2.15;1.00;;;;;;;;;;6287518;22;20007;-81
2023/10/29 12:51:41;;;;;;;1.90;0.90;;;;;;;;;;6287354;22;20003;-82
2023/10/29 12:54:19;;;;;;;2.83;1.00;;;;;;;;;;6285969;22;20004;-81
2023/10/29 12:57:03;;;;;;;5.10;2.70;;;;;;;;;;6274099;22;20007;-81
2023/10/29 12:59:34;;;;;;;3.33;1.30;;;;;;;;;;6287653;22;20418;-81
2023/10/29 13:02:09;;;;;;;5.55;1.70;;;;;;;;;;6277248;22;20012;-82
2023/10/29 13:04:40;;;;;;;12.07;5.95;;;;;;;;;;6287240;22;20007;-82
2023/10/29 13:07:11;;;;;;;13.07;7.10;;;;;;;;;;6250062;22;20031;-82
2023/10/29 13:09:42;;;;;;;5.82;2.10;;;;;;;;;;6261096;22;20019;-82
2023/10/29 13:12:16;;;;;;;6.95;3.55;;;;;;;;;;6287899;22;20008;-82
2023/10/29 13:14:49;;;;;;;6.90;2.85;;;;;;;;;;6287767;22;20003;-83
2023/10/29 13:17:40;;;;;;;3.60;1.85;;;;;;;;;;6246961;22;20015;-82
2023/10/29 13:20:14;;;;;;;3.75;1.50;;;;;;;;;;6224940;22;20012;-82
2023/10/29 13:22:44;;;;;;;4.38;1.63;;;;;;;;;;6287411;22;20007;-82
2023/10/29 13:25:16;;;;;;;3.03;1.65;;;;;;;;;;6276842;22;20004;-82
2023/10/29 13:27:47;;;;;;;5.55;2.30;;;;;;;;;;6286924;22;20008;-82
2023/10/29 13:30:17;;;;;;;4.72;2.63;;;;;;;;;;6276981;22;20018;-82
2023/10/29 13:32:48;;;;;;;4.78;2.30;;;;;;;;;;6287011;22;20011;-83
2023/10/29 13:35:37;;;;;;;3.28;1.55;;;;;;;;;;6249059;22;20043;-84
2023/10/29 13:38:12;;;;;;;;;;;;;;;;;;6286673;22;20014;-82
2023/10/29 13:40:44;;;;;;;8.23;2.95;;;;;;;;;;6286804;22;19918;-84
2023/10/29 13:43:18;;;;;;;4.80;2.78;;;;;;;;;;6286849;22;20004;-83
2023/10/29 13:46:01;;;;;;;5.97;3.38;;;;;;;;;;6287142;22;20015;-82
2023/10/29 13:48:31;;;;;;;4.75;2.40;;;;;;;;;;6286928;22;20011;-83
2023/10/29 13:51:08;;;;;;;8.80;2.00;;;;;;;;;;6276956;22;20024;-84
2023/10/29 13:53:43;;;;;;;4.45;2.10;;;;;;;;;;6286959;22;20003;-84
2023/10/29 13:56:13;;;;;;;4.18;2.42;;;;;;;;;;6260006;22;20059;-83
2023/10/29 13:58:44;;;;;;;4.55;2.67;;;;;;;;;;6276523;22;20023;-83
2023/10/29 14:01:24;;;;;;;3.67;1.95;;;;;;;;;;6286461;22;20004;-84
2023/10/29 14:04:00;;;;;;;4.75;2.10;;;;;;;;;;6261776;22;20031;-83
2023/10/29 14:06:49;;;;;;;5.68;2.00;;;;;;;;;;6245930;23;20023;-85
2023/10/29 14:09:27;;;;;;;5.43;2.15;;;;;;;;;;6246926;23;20019;-84
2023/10/29 14:12:04;;;;;;;4.80;2.92;;;;;;;;;;6221022;23;20021;-83
2023/10/29 14:14:41;;;;;;;6.10;3.75;;;;;;;;;;6231653;23;20015;-84
2023/10/29 14:17:17;;;;;;;5.50;3.38;;;;;;;;;;6196847;23;20012;-83
2023/10/29 14:19:48;;;;;;;12.95;7.13;;;;;;;;;;6220487;23;20323;-83
2023/10/29 14:22:19;;;;;;;6.70;4.05;;;;;;;;;;6246469;23;20024;-82
2023/10/29 14:24:50;;;;;;;10.88;7.05;;;;;;;;;;6221493;23;20012;-83
2023/10/29 14:27:20;;;;;;;6.43;3.28;;;;;;;;;;6232715;23;20015;-82
2023/10/29 14:29:56;;;;;;;7.68;4.43;;;;;;;;;;6246203;23;20458;-84
2023/10/29 14:32:30;;;;;;;7.72;4.53;;;;;;;;;;6220707;23;20052;-84
2023/10/29 14:35:01;;;;;;;8.50;4.88;;;;;;;;;;6257121;23;20012;-82
2023/10/29 14:37:33;;;;;;;6.90;4.72;;;;;;;;;;6246451;23;20331;-82
2023/10/29 14:40:05;;;;;;;6.38;3.92;;;;;;;;;;6256460;23;20009;-83
2023/10/29 14:42:36;;;;;;;5.40;2.92;;;;;;;;;;6245207;23;20513;-84
2023/10/29 14:45:07;;;;;;;5.85;2.70;;;;;;;;;;6253119;22;20018;-83
2023/10/29 14:47:40;;;;;;;5.05;2.90;;;;;;;;;;6279429;22;20012;-84
2023/10/29 14:50:14;;;;;;;5.03;3.03;;;;;;;;;;6263449;22;20008;-83
2023/10/29 14:52:49;;;;;;;5.22;2.83;;;;;;;;;;6290281;22;20007;-83
2023/10/29 14:55:22;;;;;;;6.22;3.30;;;;;;;;;;6252914;22;20235;-82
2023/10/29 14:57:52;;;;;;;5.97;3.65;;;;;;;;;;6251585;22;20020;-82
2023/10/29 15:00:22;;;;;;;6.75;3.95;;;;;;;;;;6279399;22;20016;-83
2023/10/29 15:02:52;;;;;;;8.50;2.92;;;;;;;;;;6252233;22;20027;-83
2023/10/29 15:05:23;;;;;;;5.65;3.30;;;;;;;;;;6279798;22;20007;-83
2023/10/29 15:07:54;;;;;;;5.90;3.22;;;;;;;;;;6289742;22;20008;-83
2023/10/29 15:10:26;;;;;;;8.63;3.60;;;;;;;;;;6290744;22;20306;-85
2023/10/29 15:12:56;;;;;;;7.30;3.35;;;;;;;;;;6279637;22;20012;-83
2023/10/29 15:15:39;;;;;;;7.53;4.05;;;;;;;;;;6289652;22;20315;-83
2023/10/29 15:18:22;;;;;;;9.25;3.70;;;;;;;;;;6263075;22;20010;-84
2023/10/29 15:21:14;;;;;;;8.00;3.47;;;;;;;;;;6262628;22;20008;-83
2023/10/29 15:23:47;;;;;;;7.82;4.07;;;;;;;;;;6277752;22;20430;-83